Lakeville, MN

12:42 PM CST on December 21, 2014 (GMT -0600)
Minneapolis-Saint Paul International | Change Station
CLOSE
Current Station
Airport
Location: Minneapolis,
Elevation: 837 ft
Nearby Weather Stations

Elev 837 ft 44.89 °N, 93.23 °W | Updated 12 minutes ago

Overcast
Overcast
34 °F
Feels Like 27 °F
N
9
Wind Variable Wind from SSE

Today
High -- | Low -- °F
--% Chance of Precip.
Yesterday
High -- | Low -- °F
Precip. -- in
7:46 AM 4:35 PM
Waning Crescent, 0% visible
Pressure 29.80 in
Visibility 1.2 miles
Clouds Overcast 400 ft
Windchill 27 °F
Dew Point 33 °F
Humidity 96%
Rainfall 0.07 in
Snow Depth Not available.
UV 1 out of 12
Pollen .10 out of 12
Air Quality Not available.
Flu Activity Not available.
SPECI KMSP 211830Z 15008KT 1 1/4SM BR OVC004 01/01 A2980 RMK AO2 TWR VIS 1 1/2 PLB10E28SNE23 P0001 T00110006

More Conditions Fewer Conditions

Pressure 29.80 in
Visibility 1.2 miles
Clouds Overcast 400 ft
Windchill 27 °F
Dew Point 33 °F
Humidity 96%
Rainfall 0.07 in
Snow Depth Not available.
UV 1 out of 12
Pollen .10 out of 12
Air Quality Not available.
Flu Activity Not available.
SPECI KMSP 211830Z 15008KT 1 1/4SM BR OVC004 01/01 A2980 RMK AO2 TWR VIS 1 1/2 PLB10E28SNE23 P0001 T00110006

More Conditions Fewer Conditions

10-Day Weather Forecast

Almanac

Astronomy

Dec. 21, 2014 Rise Set
Actual Time
Civil Twilight
Nautical Twilight
Astronomical Twilight
Moon
Length of Visible Light
Length of Day
Tomorrow will be .
, % of the Moon is Illuminated

Today's Extremes

State Highs State Lows

Community

WunderPhotos

Upload Photos

1,779,451 photos uploaded!

WunderBlogs® & News

Nearby

Air Quality

  Air Quality AQ Index Pollutant
Not available.

Snow Depth

Station Depth Elevation

Earthquake Activity

City Distance Mag. Time & Date
Minimum magnitude displayed is 2.5.

Coastal Water Temperatures

Place Temperature

Nearby Weather Stations